Milwaukee, Wisconsin
Traffic Map
Current Weather Conditions
Milwaukee, Wisconsin
Few Clouds
Few Clouds
18°
Feels Like: 18°
Wind Chill: 18° Ceiling: Unl
Heat Index: 18° Visibility: 10mi
Dew Point: 13° Wind: 15mph
Humidity: 70% Direction: 20° (NNE)
Pressure: 30.17in Gusts: 0mph
Raw Report DataKMKE 231352Z 02013KT 10SM FEW022 FEW250 18/13 A3017 RMK AO2 SLP214 T01830128
Traffic Incident Summary
Active as of:
Severity:
Category:
InformationThere was an issue retrieving the traffic information for this location. Please try a different location or try again shortly.
Advertisements
Track Severe Weather on mobile